createdAt,value
2018-02-19T00:01:00.248Z,30.60
2018-02-19T00:03:29.355Z,31.97
2018-02-19T00:05:58.443Z,31.80
2018-02-19T00:08:27.531Z,30.87
2018-02-19T00:10:56.645Z,31.80
2018-02-19T00:13:25.726Z,30.50
2018-02-19T00:15:54.843Z,28.97
2018-02-19T00:18:23.932Z,28.40
2018-02-19T00:20:53.708Z,31.80
2018-02-19T00:23:23.587Z,29.07
2018-02-19T00:25:52.699Z,31.33
2018-02-19T00:28:22.547Z,30.07
2018-02-19T00:30:51.666Z,31.80
2018-02-19T00:33:20.759Z,32.47
2018-02-19T00:35:49.880Z,30.10
2018-02-19T00:38:19.753Z,31.23
2018-02-19T00:40:48.878Z,30.50
2018-02-19T00:43:17.985Z,29.03
2018-02-19T00:45:47.090Z,30.57
2018-02-19T00:48:16.984Z,30.90
2018-02-19T00:50:46.087Z,31.00
2018-02-19T00:53:15.190Z,28.60
2018-02-19T00:55:45.059Z,30.33
2018-02-19T00:58:14.277Z,28.57
2018-02-19T01:00:43.386Z,32.00
2018-02-19T01:03:12.487Z,30.23
2018-02-19T01:05:43.989Z,28.77
2018-02-19T01:08:13.092Z,28.20
2018-02-19T01:10:42.198Z,28.10
2018-02-19T01:13:11.292Z,28.60
2018-02-19T01:15:40.402Z,26.10
2018-02-19T01:18:09.519Z,27.60
2018-02-19T01:20:38.602Z,28.30
2018-02-19T01:23:07.709Z,24.70
2018-02-19T01:25:36.800Z,26.40
2018-02-19T01:28:05.944Z,26.10
2018-02-19T01:30:35.028Z,25.40
2018-02-19T01:33:04.205Z,28.10
2018-02-19T01:35:33.300Z,25.83
2018-02-19T01:38:03.165Z,25.93
2018-02-19T01:40:32.270Z,26.63
2018-02-19T01:43:01.587Z,25.40
2018-02-19T01:45:30.680Z,25.83
2018-02-19T01:47:59.770Z,26.80
2018-02-19T01:50:28.858Z,25.77
2018-02-19T01:52:58.758Z,24.73
2018-02-19T01:55:27.831Z,26.27
2018-02-19T01:57:56.948Z,25.80
2018-02-19T02:00:26.052Z,26.10
2018-02-19T02:02:55.158Z,24.90
2018-02-19T02:05:24.240Z,23.57
2018-02-19T02:07:53.373Z,22.80
2018-02-19T02:10:22.457Z,23.40
2018-02-19T02:12:51.565Z,22.57
2018-02-19T02:15:20.665Z,23.13
2018-02-19T02:17:49.798Z,20.50
2018-02-19T02:20:19.638Z,20.50
2018-02-19T02:22:48.734Z,20.77
2018-02-19T02:25:17.828Z,21.20
2018-02-19T02:27:46.925Z,20.57
2018-02-19T02:30:16.031Z,17.70
2018-02-19T02:32:45.114Z,18.23
2018-02-19T02:35:14.240Z,17.77
2018-02-19T02:37:43.333Z,16.83
2018-02-19T02:40:12.454Z,18.37
2018-02-19T02:42:42.303Z,16.00
2018-02-19T02:45:11.475Z,18.47
2018-02-19T02:47:41.339Z,17.20
2018-02-19T02:50:10.432Z,16.70
2018-02-19T02:52:39.538Z,18.00
2018-02-19T02:55:08.662Z,17.50
2018-02-19T02:57:37.747Z,17.93
2018-02-19T03:00:06.857Z,18.17
2018-02-19T03:02:36.740Z,17.53
2018-02-19T03:05:05.845Z,18.07
2018-02-19T03:07:34.920Z,17.73
2018-02-19T03:10:04.029Z,16.57
2018-02-19T03:12:34.321Z,18.00
2018-02-19T03:15:03.437Z,19.63
2018-02-19T03:17:32.523Z,19.90
2018-02-19T03:20:02.346Z,18.77
2018-02-19T03:22:31.450Z,19.10
2018-02-19T03:25:00.550Z,21.00
2018-02-19T03:27:29.658Z,20.73
2018-02-19T03:29:58.752Z,21.37
2018-02-19T03:32:27.861Z,22.13
2018-02-19T03:34:56.947Z,22.47
2018-02-19T03:37:26.093Z,19.97
2018-02-19T03:39:55.940Z,21.23
2018-02-19T03:42:25.029Z,19.73
2018-02-19T03:44:54.144Z,19.60
2018-02-19T03:47:23.231Z,21.33
2018-02-19T03:49:52.338Z,20.63
2018-02-19T03:52:21.418Z,21.83
2018-02-19T03:54:50.556Z,21.60
2018-02-19T03:57:20.914Z,22.03
2018-02-19T03:59:50.028Z,20.17
2018-02-19T04:02:19.110Z,21.23
2018-02-19T04:04:48.214Z,21.13
2018-02-19T04:07:17.308Z,21.10
2018-02-19T04:09:46.407Z,21.40
2018-02-19T04:12:15.497Z,22.43
2018-02-19T04:14:44.623Z,23.20
2018-02-19T04:17:13.722Z,21.60
2018-02-19T04:19:42.842Z,21.90
2018-02-19T04:22:11.934Z,21.63
2018-02-19T04:24:41.801Z,22.90
2018-02-19T04:27:10.911Z,22.80
2018-02-19T04:29:40.018Z,22.97
2018-02-19T04:32:09.145Z,23.50
2018-02-19T04:34:39.014Z,23.63
2018-02-19T04:37:08.130Z,23.90
2018-02-19T04:39:37.236Z,22.53
2018-02-19T04:42:06.338Z,23.00
2018-02-19T04:44:48.030Z,24.53
2018-02-19T04:47:17.902Z,22.90
2018-02-19T04:49:46.985Z,24.50
2018-02-19T04:52:16.107Z,22.63
2018-02-19T04:54:45.197Z,22.67
2018-02-19T04:57:14.312Z,22.77
2018-02-19T04:59:43.435Z,23.90
2018-02-19T05:02:13.305Z,24.10
2018-02-19T05:04:42.417Z,23.70
2018-02-19T05:07:13.040Z,24.43
2018-02-19T05:09:42.145Z,23.60
2018-02-19T05:12:11.229Z,22.70
2018-02-19T05:14:40.348Z,24.40
2018-02-19T05:17:09.439Z,23.43
2018-02-19T05:19:38.547Z,27.67
2018-02-19T05:22:08.403Z,25.30
2018-02-19T05:24:37.536Z,27.43
2018-02-19T05:27:06.624Z,27.03
2018-02-19T05:29:35.732Z,26.97
2018-02-19T05:32:04.824Z,24.00
2018-02-19T05:34:33.948Z,23.87
2018-02-19T05:37:03.802Z,25.23
2018-02-19T05:39:32.920Z,26.97
2018-02-19T05:42:02.018Z,25.30
2018-02-19T05:44:31.118Z,24.73
2018-02-19T05:47:00.243Z,25.20
2018-02-19T05:49:29.334Z,24.20
2018-02-19T05:51:59.218Z,27.60
2018-02-19T05:54:28.326Z,27.20
2018-02-19T05:56:57.436Z,27.50
2018-02-19T05:59:26.550Z,24.83
2018-02-19T06:01:56.450Z,25.30
2018-02-19T06:04:25.877Z,25.30
2018-02-19T06:06:54.987Z,25.80
2018-02-19T06:09:24.071Z,26.53
2018-02-19T06:11:53.189Z,28.10
2018-02-19T06:14:22.276Z,26.77
2018-02-19T06:16:51.393Z,26.30
2018-02-19T06:19:20.483Z,26.37
2018-02-19T06:21:49.594Z,25.67
2018-02-19T06:24:18.716Z,26.03
2018-02-19T06:26:47.826Z,25.30
2018-02-19T06:29:17.701Z,28.23
2018-02-19T06:31:47.139Z,27.93
2018-02-19T06:34:17.015Z,29.07
2018-02-19T06:36:46.132Z,28.50
2018-02-19T06:39:15.241Z,28.60
2018-02-19T06:41:45.102Z,29.37
2018-02-19T06:44:14.214Z,29.43
2018-02-19T06:46:43.360Z,28.97
2018-02-19T06:49:13.250Z,28.33
2018-02-19T06:51:42.355Z,29.40
2018-02-19T06:54:12.060Z,29.53
2018-02-19T06:56:41.158Z,32.40
2018-02-19T06:59:10.257Z,30.30
2018-02-19T07:01:39.358Z,32.03
2018-02-19T07:04:08.468Z,32.10
2018-02-19T07:06:38.338Z,30.83
2018-02-19T07:09:07.447Z,31.30
2018-02-19T07:11:36.576Z,30.43
2018-02-19T07:14:06.430Z,29.57
2018-02-19T07:16:35.532Z,30.20
2018-02-19T07:19:04.642Z,30.60
2018-02-19T07:21:33.752Z,27.00
2018-02-19T07:24:02.874Z,28.33
2018-02-19T07:26:32.743Z,28.57
2018-02-19T07:29:01.849Z,31.73
2018-02-19T07:31:30.954Z,30.27
2018-02-19T07:34:00.095Z,28.03
2018-02-19T07:36:29.198Z,28.07
2018-02-19T07:38:58.320Z,30.03
2018-02-19T07:41:28.211Z,28.50
2018-02-19T07:43:57.306Z,27.90
2018-02-19T07:46:26.397Z,26.90
2018-02-19T07:48:55.560Z,26.70
2018-02-19T07:51:24.668Z,24.30
2018-02-19T07:53:54.533Z,26.87
2018-02-19T07:56:23.657Z,25.60
2018-02-19T07:58:52.736Z,28.40
2018-02-19T08:01:21.867Z,27.83
2018-02-19T08:03:51.713Z,24.83
2018-02-19T08:06:20.846Z,29.43
2018-02-19T08:08:50.791Z,27.30
2018-02-19T08:11:20.674Z,26.07
2018-02-19T08:13:49.757Z,26.47
2018-02-19T08:16:18.906Z,29.33
2018-02-19T08:18:48.762Z,27.37
2018-02-19T08:21:17.858Z,26.57
2018-02-19T08:23:47.005Z,26.13
2018-02-19T08:26:16.090Z,25.50
2018-02-19T08:28:45.973Z,25.53
2018-02-19T08:31:15.073Z,25.50
2018-02-19T08:33:44.209Z,26.73
2018-02-19T08:36:14.078Z,27.23
2018-02-19T08:38:43.173Z,29.27
2018-02-19T08:41:12.289Z,26.97
2018-02-19T08:43:41.428Z,29.10
2018-02-19T08:46:11.328Z,26.97
2018-02-19T08:48:41.183Z,31.17
2018-02-19T08:51:10.298Z,27.13
2018-02-19T08:53:39.635Z,27.60
2018-02-19T08:56:08.750Z,28.30
2018-02-19T08:58:38.564Z,26.40
2018-02-19T09:01:07.668Z,28.37
2018-02-19T09:03:36.782Z,26.20
2018-02-19T09:06:05.889Z,26.30
2018-02-19T09:08:34.970Z,25.70
2018-02-19T09:11:04.070Z,27.57
2018-02-19T09:13:33.185Z,25.80
2018-02-19T09:16:02.308Z,26.50
2018-02-19T09:18:31.406Z,27.50
2018-02-19T09:21:01.294Z,25.67
2018-02-19T09:23:30.385Z,28.30
2018-02-19T09:25:59.799Z,26.63
2018-02-19T09:28:28.894Z,26.10
2018-02-19T09:30:58.837Z,28.80
2018-02-19T09:33:28.710Z,26.47
2018-02-19T09:35:57.890Z,26.83
2018-02-19T09:38:26.990Z,26.63
2018-02-19T09:40:57.157Z,26.30
2018-02-19T09:43:26.245Z,25.60
2018-02-19T09:45:56.298Z,26.30
2018-02-19T09:48:25.443Z,27.43
2018-02-19T09:50:54.769Z,26.63
2018-02-19T09:53:24.663Z,25.57
2018-02-19T09:55:53.756Z,28.87
2018-02-19T09:58:22.907Z,28.80
2018-02-19T10:00:52.009Z,25.77
2018-02-19T10:03:21.114Z,23.10
2018-02-19T10:05:50.246Z,23.57
2018-02-19T10:08:19.352Z,24.47
2018-02-19T10:10:48.467Z,24.70
2018-02-19T10:13:18.330Z,25.00
2018-02-19T10:15:47.462Z,26.07
2018-02-19T10:18:16.559Z,24.70
2018-02-19T10:20:45.670Z,25.53
2018-02-19T10:23:15.546Z,25.23
2018-02-19T10:25:44.647Z,22.13
2018-02-19T10:28:13.741Z,25.63
2018-02-19T10:30:42.878Z,23.97
2018-02-19T10:33:12.770Z,23.60
2018-02-19T10:35:41.866Z,25.03
2018-02-19T10:38:10.966Z,23.33
2018-02-19T10:40:40.095Z,22.00
2018-02-19T10:43:09.191Z,22.40
2018-02-19T10:45:38.319Z,22.43
2018-02-19T10:48:07.433Z,20.53
2018-02-19T10:50:36.553Z,20.47
2018-02-19T10:53:05.645Z,22.60
2018-02-19T10:55:34.744Z,23.17
2018-02-19T10:58:03.856Z,23.90
2018-02-19T11:00:39.215Z,20.53
2018-02-19T11:03:09.083Z,20.07
2018-02-19T11:05:38.215Z,21.90
2018-02-19T11:08:08.060Z,23.10
2018-02-19T11:10:37.175Z,23.53
2018-02-19T11:13:06.286Z,24.37
2018-02-19T11:15:35.388Z,22.50
2018-02-19T11:18:06.021Z,20.40
2018-02-19T11:20:35.113Z,23.00
2018-02-19T11:23:04.241Z,21.77
2018-02-19T11:25:34.101Z,21.80
2018-02-19T11:28:03.244Z,23.33
2018-02-19T11:30:33.115Z,24.73
2018-02-19T11:33:02.216Z,23.17
2018-02-19T11:35:31.314Z,23.70
2018-02-19T11:38:00.437Z,25.10
2018-02-19T11:40:31.127Z,21.23
2018-02-19T11:43:00.202Z,22.60
2018-02-19T11:45:29.298Z,23.10
2018-02-19T11:47:58.437Z,19.40
2018-02-19T11:50:27.554Z,20.80
2018-02-19T11:52:57.432Z,21.27
2018-02-19T11:55:26.550Z,21.50
2018-02-19T11:57:55.681Z,20.40
2018-02-19T12:00:25.550Z,20.03
2018-02-19T12:02:54.652Z,20.50
2018-02-19T12:05:23.743Z,20.60
2018-02-19T12:07:52.973Z,18.10
2018-02-19T12:10:22.067Z,18.50
2018-02-19T12:12:51.195Z,17.30
2018-02-19T12:15:20.279Z,16.97
2018-02-19T12:17:49.406Z,17.73
2018-02-19T12:20:18.479Z,19.03
2018-02-19T12:22:47.593Z,17.90
2018-02-19T12:25:16.705Z,17.90
2018-02-19T12:27:45.829Z,19.87
2018-02-19T12:30:14.935Z,20.83
2018-02-19T12:32:44.061Z,20.17
2018-02-19T12:35:13.906Z,21.80
2018-02-19T12:37:43.029Z,23.00
2018-02-19T12:40:12.124Z,18.90
2018-02-19T12:42:41.260Z,18.33
2018-02-19T12:45:11.176Z,18.80
2018-02-19T12:47:40.254Z,19.10
2018-02-19T12:50:09.358Z,18.67
2018-02-19T12:52:39.226Z,18.90
2018-02-19T12:55:08.359Z,19.77
2018-02-19T12:57:38.235Z,18.30
2018-02-19T13:00:07.368Z,19.90
2018-02-19T13:02:36.479Z,18.83
2018-02-19T13:05:05.617Z,16.93
2018-02-19T13:07:34.703Z,18.00
2018-02-19T13:10:03.825Z,17.70
2018-02-19T13:12:33.698Z,18.63
2018-02-19T13:15:02.850Z,18.27
2018-02-19T13:17:31.911Z,16.50
2018-02-19T13:20:01.038Z,16.77
2018-02-19T13:22:30.135Z,19.33
2018-02-19T13:24:59.259Z,20.13
2018-02-19T13:27:29.113Z,19.77
2018-02-19T13:29:58.245Z,20.33
2018-02-19T13:32:27.340Z,20.30
2018-02-19T13:34:56.453Z,19.43
2018-02-19T13:37:26.328Z,19.70
2018-02-19T13:39:56.188Z,19.47
2018-02-19T13:42:26.695Z,21.30
2018-02-19T13:44:55.794Z,19.80
2018-02-19T13:47:24.942Z,21.00
2018-02-19T13:49:54.790Z,21.40
2018-02-19T13:52:23.940Z,19.10
2018-02-19T13:54:53.021Z,20.20
2018-02-19T13:57:22.909Z,19.40
2018-02-19T13:59:52.001Z,21.67
2018-02-19T14:02:21.152Z,20.30
2018-02-19T14:04:50.243Z,18.63
2018-02-19T14:07:19.358Z,21.10
2018-02-19T14:09:48.509Z,20.27
2018-02-19T14:12:17.609Z,19.67
2018-02-19T14:14:47.476Z,21.50
2018-02-19T14:17:16.595Z,22.80
2018-02-19T14:19:45.674Z,21.57
2018-02-19T14:22:14.793Z,21.53
2018-02-19T14:24:43.919Z,20.17
2018-02-19T14:27:13.768Z,21.73
2018-02-19T14:29:42.901Z,20.33
2018-02-19T14:32:12.010Z,21.10
2018-02-19T14:34:41.878Z,18.83
2018-02-19T14:37:10.995Z,22.23
2018-02-19T14:39:40.121Z,25.40
2018-02-19T14:42:10.003Z,23.37
2018-02-19T14:44:39.892Z,19.60
2018-02-19T14:47:09.006Z,20.40
2018-02-19T14:49:38.118Z,22.00
2018-02-19T14:52:07.255Z,19.07
2018-02-19T14:54:37.120Z,18.97
2018-02-19T14:57:06.254Z,20.37
2018-02-19T14:59:36.142Z,21.33
2018-02-19T15:02:05.252Z,23.30
2018-02-19T15:04:34.364Z,20.80
2018-02-19T15:07:04.229Z,22.80
2018-02-19T15:09:33.361Z,21.17
2018-02-19T15:12:03.248Z,20.30
2018-02-19T15:14:32.383Z,21.50
2018-02-19T15:17:02.234Z,22.33
2018-02-19T15:19:31.346Z,21.33
2018-02-19T15:22:00.470Z,21.13
2018-02-19T15:24:29.638Z,22.83
2018-02-19T15:26:58.686Z,24.13
2018-02-19T15:29:27.804Z,23.10
2018-02-19T15:31:56.916Z,22.90
2018-02-19T15:34:26.049Z,23.97
2018-02-19T15:36:55.153Z,23.23
2018-02-19T15:39:25.063Z,22.80
2018-02-19T15:41:54.973Z,22.73
2018-02-19T15:44:24.087Z,21.07
2018-02-19T15:46:53.974Z,22.13
2018-02-19T15:49:23.120Z,23.97
2018-02-19T15:51:52.291Z,23.53
2018-02-19T15:54:21.403Z,21.90
2018-02-19T15:56:50.592Z,21.10
2018-02-19T15:59:20.485Z,22.33
2018-02-19T16:01:49.628Z,25.20
2018-02-19T16:04:18.734Z,24.90
2018-02-19T16:06:47.888Z,25.77
2018-02-19T16:09:17.008Z,27.43
2018-02-19T16:11:46.903Z,24.80
2018-02-19T16:14:16.837Z,24.20
2018-02-19T16:16:45.934Z,25.63
2018-02-19T16:19:15.030Z,23.50
2018-02-19T16:21:44.163Z,23.90
2018-02-19T16:24:13.283Z,23.73
2018-02-19T16:26:42.433Z,24.20
2018-02-19T16:29:11.527Z,24.77
2018-02-19T16:31:40.615Z,22.40
2018-02-19T16:34:09.744Z,23.43
2018-02-19T16:36:38.833Z,25.20
2018-02-19T16:39:07.959Z,24.90
2018-02-19T16:41:37.069Z,27.30
2018-02-19T16:44:06.190Z,32.60
2018-02-19T16:46:35.287Z,30.27
2018-02-19T16:49:04.482Z,32.40
2018-02-19T16:51:34.325Z,29.20
2018-02-19T16:54:03.462Z,23.87
2018-02-19T16:56:33.374Z,25.30
2018-02-19T16:59:02.486Z,26.03
2018-02-19T17:01:32.369Z,23.70
2018-02-19T17:04:02.400Z,26.60
2018-02-19T17:06:31.561Z,26.97
2018-02-19T17:09:01.397Z,30.93
2018-02-19T17:11:30.514Z,30.33
2018-02-19T17:13:59.631Z,29.67
2018-02-19T17:16:28.794Z,29.73
2018-02-19T17:18:57.891Z,29.33
2018-02-19T17:21:27.030Z,29.20
2018-02-19T17:23:56.907Z,28.03
2018-02-19T17:26:26.161Z,25.93
2018-02-19T17:28:56.081Z,25.13
2018-02-19T17:31:25.947Z,27.27
2018-02-19T17:33:55.088Z,29.10
2018-02-19T17:36:24.961Z,30.50
2018-02-19T17:38:54.054Z,28.67
2018-02-19T17:41:23.178Z,27.70
2018-02-19T17:43:52.943Z,25.50
2018-02-19T17:46:22.091Z,28.67
2018-02-19T17:48:51.996Z,26.00
2018-02-19T17:51:21.124Z,26.07
2018-02-19T17:53:51.077Z,25.70
2018-02-19T17:56:20.171Z,26.87
2018-02-19T17:58:49.360Z,25.83
2018-02-19T18:01:18.540Z,26.43
2018-02-19T18:03:48.412Z,28.30
2018-02-19T18:06:17.517Z,26.17
2018-02-19T18:08:46.701Z,26.80
2018-02-19T18:11:15.814Z,26.13
2018-02-19T18:13:44.953Z,24.40
2018-02-19T18:16:14.791Z,27.97
2018-02-19T18:18:43.909Z,27.40
2018-02-19T18:21:14.541Z,27.57
2018-02-19T18:23:43.668Z,27.30
2018-02-19T18:26:13.592Z,28.23
2018-02-19T18:28:43.491Z,24.67
2018-02-19T18:31:12.634Z,29.90
2018-02-19T18:33:41.771Z,27.80
2018-02-19T18:36:10.892Z,28.40
2018-02-19T18:38:40.018Z,26.17
2018-02-19T18:41:09.129Z,27.40
2018-02-19T18:43:38.263Z,31.53
2018-02-19T18:46:07.389Z,40.53
2018-02-19T18:48:37.438Z,30.33
2018-02-19T18:51:06.554Z,30.87
2018-02-19T18:53:35.675Z,30.37
2018-02-19T18:56:05.532Z,30.53
2018-02-19T18:58:34.656Z,26.63
2018-02-19T19:01:03.805Z,27.50
2018-02-19T19:03:33.700Z,28.80
2018-02-19T19:06:02.802Z,30.03
2018-02-19T19:08:50.416Z,26.77
2018-02-19T19:11:19.544Z,28.80
2018-02-19T19:13:48.713Z,28.47
2018-02-19T19:16:17.829Z,29.87
2018-02-19T19:18:47.716Z,27.50
2018-02-19T19:21:16.848Z,27.77
2018-02-19T19:23:45.957Z,27.00
2018-02-19T19:26:15.116Z,30.00
2018-02-19T19:28:44.230Z,32.90
2018-02-19T19:31:14.118Z,31.27
2018-02-19T19:33:44.045Z,31.30
2018-02-19T19:36:13.166Z,32.00
2018-02-19T19:38:42.295Z,30.47
2018-02-19T19:41:11.435Z,31.40
2018-02-19T19:43:41.667Z,31.77
2018-02-19T19:46:11.579Z,29.17
2018-02-19T19:48:41.472Z,30.70
2018-02-19T19:51:10.616Z,27.70
2018-02-19T19:53:39.735Z,29.03
2018-02-19T19:56:09.815Z,30.07
2018-02-19T19:58:39.909Z,29.33
2018-02-19T20:01:09.026Z,29.60
2018-02-19T20:03:38.935Z,29.10
2018-02-19T20:06:08.805Z,27.17
2018-02-19T20:08:38.002Z,28.33
2018-02-19T20:11:07.139Z,29.87
2018-02-19T20:13:37.036Z,29.23
2018-02-19T20:16:06.167Z,30.63
2018-02-19T20:18:35.339Z,29.77
2018-02-19T20:21:04.401Z,32.60
2018-02-19T20:23:33.533Z,30.23
2018-02-19T20:26:02.671Z,29.73
2018-02-19T20:28:31.822Z,34.00
2018-02-19T20:31:01.716Z,29.13
2018-02-19T20:33:30.839Z,29.70
2018-02-19T20:35:59.972Z,29.70
2018-02-19T20:38:29.095Z,30.17
2018-02-19T20:40:58.245Z,31.37
2018-02-19T20:43:28.139Z,27.67
2018-02-19T20:45:57.251Z,27.83
2018-02-19T20:48:27.139Z,30.00
2018-02-19T20:50:56.281Z,30.37
2018-02-19T20:53:25.366Z,31.27
2018-02-19T20:55:54.513Z,27.83
2018-02-19T20:58:23.651Z,27.70
2018-02-19T21:00:53.542Z,28.13
2018-02-19T21:03:22.694Z,29.10
2018-02-19T21:05:52.574Z,29.43
2018-02-19T21:08:22.483Z,28.67
2018-02-19T21:10:51.641Z,32.40
2018-02-19T21:13:20.728Z,31.17
2018-02-19T21:15:49.885Z,31.07
2018-02-19T21:18:19.772Z,32.47
2018-02-19T21:20:48.902Z,29.30
2018-02-19T21:23:18.771Z,31.03
2018-02-19T21:25:47.899Z,30.97
2018-02-19T21:28:17.774Z,31.73
2018-02-19T21:30:46.931Z,35.40
2018-02-19T21:33:16.785Z,33.40
2018-02-19T21:35:45.990Z,35.30
2018-02-19T21:38:15.102Z,35.23
2018-02-19T21:40:44.228Z,31.50
2018-02-19T21:43:14.126Z,30.87
2018-02-19T21:45:43.249Z,30.77
2018-02-19T21:48:12.365Z,31.50
2018-02-19T21:50:41.530Z,30.80
2018-02-19T21:53:11.405Z,31.33
2018-02-19T21:55:40.535Z,31.93
2018-02-19T21:58:10.394Z,34.43
2018-02-19T22:00:39.487Z,33.33
2018-02-19T22:03:08.646Z,32.27
2018-02-19T22:05:38.521Z,31.63
2018-02-19T22:08:07.652Z,30.13
2018-02-19T22:10:37.696Z,32.50
2018-02-19T22:13:07.588Z,29.77
2018-02-19T22:15:37.509Z,28.73
2018-02-19T22:18:07.395Z,29.27
2018-02-19T22:20:36.494Z,29.80
2018-02-19T22:23:05.631Z,30.73
2018-02-19T22:25:34.761Z,27.97
2018-02-19T22:28:04.110Z,27.60
2018-02-19T22:30:33.668Z,27.90
2018-02-19T22:33:02.835Z,26.57
2018-02-19T22:35:32.062Z,28.57
2018-02-19T22:38:01.162Z,27.80
2018-02-19T22:40:31.019Z,26.80
2018-02-19T22:43:00.871Z,27.87
2018-02-19T22:45:29.990Z,29.07
2018-02-19T22:47:59.831Z,26.30
2018-02-19T22:50:29.745Z,25.80
2018-02-19T22:52:58.843Z,28.67
2018-02-19T22:55:27.962Z,26.63
2018-02-19T22:57:57.841Z,28.93
2018-02-19T23:00:26.955Z,29.00
2018-02-19T23:02:56.808Z,28.23
2018-02-19T23:05:25.928Z,28.70
2018-02-19T23:07:55.075Z,29.00
2018-02-19T23:10:24.164Z,27.53
2018-02-19T23:12:53.280Z,27.47
2018-02-19T23:15:23.246Z,29.13
2018-02-19T23:17:52.368Z,27.57
2018-02-19T23:20:23.357Z,27.80
2018-02-19T23:22:52.480Z,27.40
2018-02-19T23:25:21.569Z,26.13
2018-02-19T23:27:50.673Z,28.30
2018-02-19T23:30:20.282Z,28.70
2018-02-19T23:32:49.422Z,26.17
2018-02-19T23:35:18.509Z,27.87
2018-02-19T23:37:47.642Z,27.27
2018-02-19T23:40:16.762Z,27.93
2018-02-19T23:42:45.855Z,26.77
2018-02-19T23:45:14.965Z,26.77
2018-02-19T23:47:44.055Z,27.23
2018-02-19T23:50:13.171Z,25.67
2018-02-19T23:52:43.027Z,28.80
2018-02-19T23:55:12.172Z,26.17
2018-02-19T23:57:41.258Z,26.80
